sensor_id;sensor_type;location;lat;lon;timestamp;P1;durP1;ratioP1;P2;durP2;ratioP2
64959;SDS011;51487;52.266;10.542;2023-04-08T00:00:03;9.55;;;6.57;;
64959;SDS011;51487;52.266;10.542;2023-04-08T00:02:30;9.10;;;6.97;;
64959;SDS011;51487;52.266;10.542;2023-04-08T00:04:56;10.50;;;7.13;;
64959;SDS011;51487;52.266;10.542;2023-04-08T00:07:21;9.25;;;6.68;;
64959;SDS011;51487;52.266;10.542;2023-04-08T00:09:46;10.07;;;6.95;;
64959;SDS011;51487;52.266;10.542;2023-04-08T00:12:12;9.88;;;6.78;;
64959;SDS011;51487;52.266;10.542;2023-04-08T00:14:37;9.55;;;6.75;;
64959;SDS011;51487;52.266;10.542;2023-04-08T00:17:04;10.93;;;7.63;;
64959;SDS011;51487;52.266;10.542;2023-04-08T00:19:30;9.68;;;7.05;;
64959;SDS011;51487;52.266;10.542;2023-04-08T00:21:55;9.38;;;7.22;;
64959;SDS011;51487;52.266;10.542;2023-04-08T00:24:20;10.80;;;7.38;;
64959;SDS011;51487;52.266;10.542;2023-04-08T00:26:46;11.23;;;7.72;;
64959;SDS011;51487;52.266;10.542;2023-04-08T00:29:11;12.68;;;8.38;;
64959;SDS011;51487;52.266;10.542;2023-04-08T00:31:37;12.32;;;8.00;;
64959;SDS011;51487;52.266;10.542;2023-04-08T00:34:02;9.70;;;7.18;;
64959;SDS011;51487;52.266;10.542;2023-04-08T00:36:27;9.55;;;7.45;;
64959;SDS011;51487;52.266;10.542;2023-04-08T00:38:53;11.10;;;8.18;;
64959;SDS011;51487;52.266;10.542;2023-04-08T00:41:19;9.35;;;7.43;;
64959;SDS011;51487;52.266;10.542;2023-04-08T00:43:44;8.60;;;7.20;;
64959;SDS011;51487;52.266;10.542;2023-04-08T00:46:09;11.10;;;8.10;;
64959;SDS011;51487;52.266;10.542;2023-04-08T00:48:35;10.40;;;7.78;;
64959;SDS011;51487;52.266;10.542;2023-04-08T00:51:01;11.07;;;8.35;;
64959;SDS011;51487;52.266;10.542;2023-04-08T00:53:27;12.07;;;7.90;;
64959;SDS011;51487;52.266;10.542;2023-04-08T00:55:54;10.88;;;7.68;;
64959;SDS011;51487;52.266;10.542;2023-04-08T00:58:20;10.55;;;7.78;;
64959;SDS011;51487;52.266;10.542;2023-04-08T01:00:49;11.88;;;7.47;;
64959;SDS011;51487;52.266;10.542;2023-04-08T01:03:27;10.23;;;7.85;;
64959;SDS011;51487;52.266;10.542;2023-04-08T01:06:19;9.15;;;7.25;;
64959;SDS011;51487;52.266;10.542;2023-04-08T01:08:53;9.38;;;7.43;;
64959;SDS011;51487;52.266;10.542;2023-04-08T01:11:20;9.27;;;6.93;;
64959;SDS011;51487;52.266;10.542;2023-04-08T01:13:46;9.55;;;7.30;;
64959;SDS011;51487;52.266;10.542;2023-04-08T01:16:14;10.05;;;6.95;;
64959;SDS011;51487;52.266;10.542;2023-04-08T01:18:42;10.25;;;6.43;;
64959;SDS011;51487;52.266;10.542;2023-04-08T01:21:10;9.52;;;7.13;;
64959;SDS011;51487;52.266;10.542;2023-04-08T01:26:12;11.15;;;7.88;;
64959;SDS011;51487;52.266;10.542;2023-04-08T01:28:45;9.43;;;6.43;;
64959;SDS011;51487;52.266;10.542;2023-04-08T01:31:13;9.15;;;6.70;;
64959;SDS011;51487;52.266;10.542;2023-04-08T01:33:39;10.50;;;7.50;;
64959;SDS011;51487;52.266;10.542;2023-04-08T01:36:05;10.65;;;7.75;;
64959;SDS011;51487;52.266;10.542;2023-04-08T01:38:31;9.55;;;7.35;;
64959;SDS011;51487;52.266;10.542;2023-04-08T01:40:58;9.13;;;7.18;;
64959;SDS011;51487;52.266;10.542;2023-04-08T01:43:23;11.52;;;7.50;;
64959;SDS011;51487;52.266;10.542;2023-04-08T01:45:51;11.20;;;7.55;;
64959;SDS011;51487;52.266;10.542;2023-04-08T01:48:21;9.75;;;7.72;;
64959;SDS011;51487;52.266;10.542;2023-04-08T01:50:48;10.48;;;7.82;;
64959;SDS011;51487;52.266;10.542;2023-04-08T01:53:15;11.02;;;7.60;;
64959;SDS011;51487;52.266;10.542;2023-04-08T01:55:41;10.18;;;7.22;;
64959;SDS011;51487;52.266;10.542;2023-04-08T01:58:08;10.65;;;6.95;;
64959;SDS011;51487;52.266;10.542;2023-04-08T02:00:36;10.88;;;7.65;;
64959;SDS011;51487;52.266;10.542;2023-04-08T02:03:04;11.35;;;7.80;;
64959;SDS011;51487;52.266;10.542;2023-04-08T02:05:31;9.15;;;7.32;;
64959;SDS011;51487;52.266;10.542;2023-04-08T02:07:56;10.57;;;7.57;;
64959;SDS011;51487;52.266;10.542;2023-04-08T02:10:22;10.55;;;7.70;;
64959;SDS011;51487;52.266;10.542;2023-04-08T02:12:47;11.35;;;7.72;;
64959;SDS011;51487;52.266;10.542;2023-04-08T02:15:12;11.18;;;7.85;;
64959;SDS011;51487;52.266;10.542;2023-04-08T02:17:45;13.02;;;7.82;;
64959;SDS011;51487;52.266;10.542;2023-04-08T02:25:15;11.05;;;7.43;;
64959;SDS011;51487;52.266;10.542;2023-04-08T02:27:42;11.07;;;8.25;;
64959;SDS011;51487;52.266;10.542;2023-04-08T02:30:10;13.20;;;8.65;;
64959;SDS011;51487;52.266;10.542;2023-04-08T02:32:37;15.27;;;9.63;;
64959;SDS011;51487;52.266;10.542;2023-04-08T02:35:03;14.02;;;8.82;;
64959;SDS011;51487;52.266;10.542;2023-04-08T02:37:30;12.55;;;8.63;;
64959;SDS011;51487;52.266;10.542;2023-04-08T02:39:55;12.40;;;8.30;;
64959;SDS011;51487;52.266;10.542;2023-04-08T02:42:21;11.73;;;8.52;;
64959;SDS011;51487;52.266;10.542;2023-04-08T02:44:46;13.00;;;8.68;;
64959;SDS011;51487;52.266;10.542;2023-04-08T02:47:12;12.25;;;8.85;;
64959;SDS011;51487;52.266;10.542;2023-04-08T02:49:37;10.43;;;8.50;;
64959;SDS011;51487;52.266;10.542;2023-04-08T02:52:03;13.43;;;8.13;;
64959;SDS011;51487;52.266;10.542;2023-04-08T02:54:28;13.18;;;9.07;;
64959;SDS011;51487;52.266;10.542;2023-04-08T02:56:54;14.18;;;9.35;;
64959;SDS011;51487;52.266;10.542;2023-04-08T02:59:20;12.98;;;8.90;;
64959;SDS011;51487;52.266;10.542;2023-04-08T03:01:45;14.32;;;9.25;;
64959;SDS011;51487;52.266;10.542;2023-04-08T03:04:10;15.40;;;9.45;;
64959;SDS011;51487;52.266;10.542;2023-04-08T03:06:36;14.35;;;9.48;;
64959;SDS011;51487;52.266;10.542;2023-04-08T03:09:01;11.82;;;8.93;;
64959;SDS011;51487;52.266;10.542;2023-04-08T03:11:26;13.90;;;9.23;;
64959;SDS011;51487;52.266;10.542;2023-04-08T03:13:52;14.45;;;9.88;;
64959;SDS011;51487;52.266;10.542;2023-04-08T03:16:17;13.43;;;9.23;;
64959;SDS011;51487;52.266;10.542;2023-04-08T03:18:43;15.13;;;9.70;;
64959;SDS011;51487;52.266;10.542;2023-04-08T03:21:08;12.50;;;9.95;;
64959;SDS011;51487;52.266;10.542;2023-04-08T03:23:33;18.13;;;9.65;;
64959;SDS011;51487;52.266;10.542;2023-04-08T03:25:59;14.52;;;8.82;;
64959;SDS011;51487;52.266;10.542;2023-04-08T03:28:24;13.70;;;9.27;;
64959;SDS011;51487;52.266;10.542;2023-04-08T03:30:50;15.30;;;9.98;;
64959;SDS011;51487;52.266;10.542;2023-04-08T03:33:15;15.40;;;9.55;;
64959;SDS011;51487;52.266;10.542;2023-04-08T03:35:40;15.80;;;10.40;;
64959;SDS011;51487;52.266;10.542;2023-04-08T03:38:06;14.23;;;9.75;;
64959;SDS011;51487;52.266;10.542;2023-04-08T03:40:31;15.82;;;10.07;;
64959;SDS011;51487;52.266;10.542;2023-04-08T03:42:57;14.98;;;10.93;;
64959;SDS011;51487;52.266;10.542;2023-04-08T03:45:22;15.63;;;9.90;;
64959;SDS011;51487;52.266;10.542;2023-04-08T03:47:47;18.42;;;10.50;;
64959;SDS011;51487;52.266;10.542;2023-04-08T03:50:13;14.65;;;9.45;;
64959;SDS011;51487;52.266;10.542;2023-04-08T03:52:38;15.10;;;9.95;;
64959;SDS011;51487;52.266;10.542;2023-04-08T03:55:03;15.90;;;10.50;;
64959;SDS011;51487;52.266;10.542;2023-04-08T03:57:29;14.48;;;10.18;;
64959;SDS011;51487;52.266;10.542;2023-04-08T03:59:54;15.63;;;10.07;;
64959;SDS011;51487;52.266;10.542;2023-04-08T04:02:20;18.02;;;10.57;;
64959;SDS011;51487;52.266;10.542;2023-04-08T04:04:45;15.82;;;11.20;;
64959;SDS011;51487;52.266;10.542;2023-04-08T04:07:11;13.70;;;10.32;;
64959;SDS011;51487;52.266;10.542;2023-04-08T04:09:36;16.90;;;10.77;;
64959;SDS011;51487;52.266;10.542;2023-04-08T04:12:02;14.57;;;10.93;;
64959;SDS011;51487;52.266;10.542;2023-04-08T04:14:27;14.77;;;10.25;;
64959;SDS011;51487;52.266;10.542;2023-04-08T04:16:52;16.13;;;10.70;;
64959;SDS011;51487;52.266;10.542;2023-04-08T04:19:18;14.82;;;10.13;;
64959;SDS011;51487;52.266;10.542;2023-04-08T04:21:43;17.02;;;11.02;;
64959;SDS011;51487;52.266;10.542;2023-04-08T04:24:09;16.55;;;11.23;;
64959;SDS011;51487;52.266;10.542;2023-04-08T04:26:34;17.88;;;10.50;;
64959;SDS011;51487;52.266;10.542;2023-04-08T04:28:59;14.57;;;10.25;;
64959;SDS011;51487;52.266;10.542;2023-04-08T04:31:25;14.52;;;10.57;;
64959;SDS011;51487;52.266;10.542;2023-04-08T04:33:50;17.60;;;11.18;;
64959;SDS011;51487;52.266;10.542;2023-04-08T04:36:16;14.07;;;10.88;;
64959;SDS011;51487;52.266;10.542;2023-04-08T04:38:42;16.55;;;10.60;;
64959;SDS011;51487;52.266;10.542;2023-04-08T04:41:08;14.88;;;10.82;;
64959;SDS011;51487;52.266;10.542;2023-04-08T04:43:33;21.15;;;11.35;;
64959;SDS011;51487;52.266;10.542;2023-04-08T04:45:59;18.65;;;12.15;;
64959;SDS011;51487;52.266;10.542;2023-04-08T04:48:25;16.92;;;11.82;;
64959;SDS011;51487;52.266;10.542;2023-04-08T04:50:56;15.73;;;11.40;;
64959;SDS011;51487;52.266;10.542;2023-04-08T04:53:22;18.25;;;10.88;;
64959;SDS011;51487;52.266;10.542;2023-04-08T04:55:49;16.85;;;11.88;;
64959;SDS011;51487;52.266;10.542;2023-04-08T04:58:14;19.85;;;10.60;;
64959;SDS011;51487;52.266;10.542;2023-04-08T05:00:40;15.80;;;10.95;;
64959;SDS011;51487;52.266;10.542;2023-04-08T05:03:05;15.00;;;10.95;;
64959;SDS011;51487;52.266;10.542;2023-04-08T05:05:31;15.73;;;11.05;;
64959;SDS011;51487;52.266;10.542;2023-04-08T05:07:56;17.52;;;11.05;;
64959;SDS011;51487;52.266;10.542;2023-04-08T05:10:21;21.80;;;12.25;;
64959;SDS011;51487;52.266;10.542;2023-04-08T05:12:47;18.10;;;11.52;;
64959;SDS011;51487;52.266;10.542;2023-04-08T05:15:12;17.95;;;11.77;;
64959;SDS011;51487;52.266;10.542;2023-04-08T05:17:38;19.05;;;11.75;;
64959;SDS011;51487;52.266;10.542;2023-04-08T05:20:03;19.67;;;12.30;;
64959;SDS011;51487;52.266;10.542;2023-04-08T05:22:29;21.27;;;12.20;;
64959;SDS011;51487;52.266;10.542;2023-04-08T05:24:54;19.90;;;12.27;;
64959;SDS011;51487;52.266;10.542;2023-04-08T05:27:20;20.42;;;12.38;;
64959;SDS011;51487;52.266;10.542;2023-04-08T05:29:45;17.67;;;11.15;;
64959;SDS011;51487;52.266;10.542;2023-04-08T05:32:11;18.40;;;11.68;;
64959;SDS011;51487;52.266;10.542;2023-04-08T05:34:36;19.90;;;12.73;;
64959;SDS011;51487;52.266;10.542;2023-04-08T05:37:02;20.13;;;12.65;;
64959;SDS011;51487;52.266;10.542;2023-04-08T05:39:27;20.73;;;12.18;;
64959;SDS011;51487;52.266;10.542;2023-04-08T05:41:52;20.15;;;12.05;;
64959;SDS011;51487;52.266;10.542;2023-04-08T05:44:18;21.33;;;12.73;;
64959;SDS011;51487;52.266;10.542;2023-04-08T05:46:44;20.38;;;12.95;;
64959;SDS011;51487;52.266;10.542;2023-04-08T05:49:09;20.50;;;12.68;;
64959;SDS011;51487;52.266;10.542;2023-04-08T05:51:36;24.15;;;13.40;;
64959;SDS011;51487;52.266;10.542;2023-04-08T05:54:01;25.23;;;14.85;;
64959;SDS011;51487;52.266;10.542;2023-04-08T05:56:27;21.45;;;14.20;;
64959;SDS011;51487;52.266;10.542;2023-04-08T05:58:52;21.10;;;13.30;;
64959;SDS011;51487;52.266;10.542;2023-04-08T06:01:18;19.75;;;13.38;;
64959;SDS011;51487;52.266;10.542;2023-04-08T06:03:43;23.30;;;12.85;;
64959;SDS011;51487;52.266;10.542;2023-04-08T06:06:09;20.27;;;12.95;;
64959;SDS011;51487;52.266;10.542;2023-04-08T06:08:38;23.13;;;13.70;;
64959;SDS011;51487;52.266;10.542;2023-04-08T06:11:03;22.88;;;12.73;;
64959;SDS011;51487;52.266;10.542;2023-04-08T06:13:29;20.52;;;12.77;;
64959;SDS011;51487;52.266;10.542;2023-04-08T06:15:55;27.70;;;14.20;;
64959;SDS011;51487;52.266;10.542;2023-04-08T06:18:21;23.88;;;13.85;;
64959;SDS011;51487;52.266;10.542;2023-04-08T06:20:47;23.52;;;14.40;;
64959;SDS011;51487;52.266;10.542;2023-04-08T06:23:12;24.95;;;13.85;;
64959;SDS011;51487;52.266;10.542;2023-04-08T06:25:38;22.35;;;14.50;;
64959;SDS011;51487;52.266;10.542;2023-04-08T06:28:03;24.20;;;14.45;;
64959;SDS011;51487;52.266;10.542;2023-04-08T06:30:28;22.20;;;14.10;;
64959;SDS011;51487;52.266;10.542;2023-04-08T06:32:54;24.85;;;14.27;;
64959;SDS011;51487;52.266;10.542;2023-04-08T06:35:19;23.27;;;14.63;;
64959;SDS011;51487;52.266;10.542;2023-04-08T06:37:45;27.60;;;15.38;;
64959;SDS011;51487;52.266;10.542;2023-04-08T06:40:10;24.58;;;15.15;;
64959;SDS011;51487;52.266;10.542;2023-04-08T06:42:35;24.85;;;13.98;;
64959;SDS011;51487;52.266;10.542;2023-04-08T06:45:02;27.45;;;15.63;;
64959;SDS011;51487;52.266;10.542;2023-04-08T06:47:28;24.75;;;15.05;;
64959;SDS011;51487;52.266;10.542;2023-04-08T06:49:54;28.90;;;15.05;;
64959;SDS011;51487;52.266;10.542;2023-04-08T06:52:19;25.90;;;15.48;;
64959;SDS011;51487;52.266;10.542;2023-04-08T06:54:45;27.95;;;15.85;;
64959;SDS011;51487;52.266;10.542;2023-04-08T06:57:10;26.25;;;15.20;;
64959;SDS011;51487;52.266;10.542;2023-04-08T06:59:36;25.67;;;15.48;;
64959;SDS011;51487;52.266;10.542;2023-04-08T07:02:02;23.30;;;14.98;;
64959;SDS011;51487;52.266;10.542;2023-04-08T07:04:27;26.95;;;16.00;;
64959;SDS011;51487;52.266;10.542;2023-04-08T07:06:52;24.83;;;14.73;;
64959;SDS011;51487;52.266;10.542;2023-04-08T07:09:18;22.80;;;15.07;;
64959;SDS011;51487;52.266;10.542;2023-04-08T07:11:43;25.63;;;14.65;;
64959;SDS011;51487;52.266;10.542;2023-04-08T07:14:08;26.38;;;15.77;;
64959;SDS011;51487;52.266;10.542;2023-04-08T07:16:34;25.23;;;14.43;;
64959;SDS011;51487;52.266;10.542;2023-04-08T07:18:59;25.50;;;14.32;;
64959;SDS011;51487;52.266;10.542;2023-04-08T07:21:25;25.90;;;15.73;;
64959;SDS011;51487;52.266;10.542;2023-04-08T07:23:51;26.13;;;14.25;;
64959;SDS011;51487;52.266;10.542;2023-04-08T07:26:16;30.42;;;14.80;;
64959;SDS011;51487;52.266;10.542;2023-04-08T07:28:42;23.65;;;14.88;;
64959;SDS011;51487;52.266;10.542;2023-04-08T07:31:12;24.67;;;13.98;;
64959;SDS011;51487;52.266;10.542;2023-04-08T07:33:41;26.75;;;15.27;;
64959;SDS011;51487;52.266;10.542;2023-04-08T07:36:10;24.77;;;15.32;;
64959;SDS011;51487;52.266;10.542;2023-04-08T07:38:37;24.60;;;14.73;;
64959;SDS011;51487;52.266;10.542;2023-04-08T07:41:05;22.92;;;13.35;;
64959;SDS011;51487;52.266;10.542;2023-04-08T07:43:30;21.67;;;14.32;;
64959;SDS011;51487;52.266;10.542;2023-04-08T07:46:00;24.88;;;14.75;;
64959;SDS011;51487;52.266;10.542;2023-04-08T07:48:29;24.33;;;15.50;;
64959;SDS011;51487;52.266;10.542;2023-04-08T07:51:04;24.02;;;14.90;;
64959;SDS011;51487;52.266;10.542;2023-04-08T07:53:31;24.70;;;15.80;;
64959;SDS011;51487;52.266;10.542;2023-04-08T07:55:57;29.25;;;16.33;;
64959;SDS011;51487;52.266;10.542;2023-04-08T07:58:23;24.58;;;16.73;;
64959;SDS011;51487;52.266;10.542;2023-04-08T08:00:50;25.90;;;14.43;;
64959;SDS011;51487;52.266;10.542;2023-04-08T08:03:15;23.40;;;15.02;;
64959;SDS011;51487;52.266;10.542;2023-04-08T08:05:40;27.98;;;17.30;;
64959;SDS011;51487;52.266;10.542;2023-04-08T08:08:06;24.77;;;15.40;;
64959;SDS011;51487;52.266;10.542;2023-04-08T08:10:32;24.85;;;16.08;;
64959;SDS011;51487;52.266;10.542;2023-04-08T08:12:58;26.00;;;16.50;;
64959;SDS011;51487;52.266;10.542;2023-04-08T08:15:23;28.35;;;17.15;;
64959;SDS011;51487;52.266;10.542;2023-04-08T08:17:49;28.83;;;17.52;;
64959;SDS011;51487;52.266;10.542;2023-04-08T08:20:15;27.83;;;16.85;;
64959;SDS011;51487;52.266;10.542;2023-04-08T08:22:40;27.52;;;16.50;;
64959;SDS011;51487;52.266;10.542;2023-04-08T08:25:06;28.45;;;16.80;;
64959;SDS011;51487;52.266;10.542;2023-04-08T08:27:33;26.42;;;17.23;;
64959;SDS011;51487;52.266;10.542;2023-04-08T08:29:59;27.98;;;16.30;;
64959;SDS011;51487;52.266;10.542;2023-04-08T08:32:24;25.92;;;16.13;;
64959;SDS011;51487;52.266;10.542;2023-04-08T08:34:50;25.42;;;15.52;;
64959;SDS011;51487;52.266;10.542;2023-04-08T08:37:15;25.40;;;15.48;;
64959;SDS011;51487;52.266;10.542;2023-04-08T08:39:40;27.15;;;16.55;;
64959;SDS011;51487;52.266;10.542;2023-04-08T08:42:06;25.73;;;15.65;;
64959;SDS011;51487;52.266;10.542;2023-04-08T08:44:31;25.15;;;15.20;;
64959;SDS011;51487;52.266;10.542;2023-04-08T08:46:57;20.10;;;13.75;;
64959;SDS011;51487;52.266;10.542;2023-04-08T08:49:22;23.10;;;14.20;;
64959;SDS011;51487;52.266;10.542;2023-04-08T08:51:48;20.63;;;13.02;;
64959;SDS011;51487;52.266;10.542;2023-04-08T08:54:15;19.38;;;12.38;;
64959;SDS011;51487;52.266;10.542;2023-04-08T08:56:40;19.52;;;12.13;;
64959;SDS011;51487;52.266;10.542;2023-04-08T08:59:07;19.00;;;12.02;;
64959;SDS011;51487;52.266;10.542;2023-04-08T09:01:37;18.40;;;12.15;;
64959;SDS011;51487;52.266;10.542;2023-04-08T09:04:08;18.83;;;11.82;;
64959;SDS011;51487;52.266;10.542;2023-04-08T09:06:42;19.65;;;11.55;;
64959;SDS011;51487;52.266;10.542;2023-04-08T09:09:08;17.85;;;11.27;;
64959;SDS011;51487;52.266;10.542;2023-04-08T09:11:35;17.63;;;11.43;;
64959;SDS011;51487;52.266;10.542;2023-04-08T09:14:04;20.60;;;12.43;;
64959;SDS011;51487;52.266;10.542;2023-04-08T09:16:42;20.90;;;12.75;;
64959;SDS011;51487;52.266;10.542;2023-04-08T09:19:09;20.48;;;12.55;;
64959;SDS011;51487;52.266;10.542;2023-04-08T09:21:35;18.30;;;12.10;;
64959;SDS011;51487;52.266;10.542;2023-04-08T09:24:01;21.30;;;12.50;;
64959;SDS011;51487;52.266;10.542;2023-04-08T09:26:26;19.08;;;11.80;;
64959;SDS011;51487;52.266;10.542;2023-04-08T09:28:58;20.67;;;12.88;;
64959;SDS011;51487;52.266;10.542;2023-04-08T09:31:27;23.20;;;13.40;;
64959;SDS011;51487;52.266;10.542;2023-04-08T09:33:55;19.48;;;12.50;;
64959;SDS011;51487;52.266;10.542;2023-04-08T09:36:22;20.02;;;12.60;;
64959;SDS011;51487;52.266;10.542;2023-04-08T09:38:47;22.27;;;12.85;;
64959;SDS011;51487;52.266;10.542;2023-04-08T09:41:16;21.27;;;13.07;;
64959;SDS011;51487;52.266;10.542;2023-04-08T09:43:43;20.48;;;12.82;;
64959;SDS011;51487;52.266;10.542;2023-04-08T09:46:13;22.63;;;12.73;;
64959;SDS011;51487;52.266;10.542;2023-04-08T09:48:42;19.88;;;12.60;;
64959;SDS011;51487;52.266;10.542;2023-04-08T09:51:14;20.55;;;13.32;;
64959;SDS011;51487;52.266;10.542;2023-04-08T09:53:41;23.38;;;13.93;;
64959;SDS011;51487;52.266;10.542;2023-04-08T09:56:11;24.67;;;14.05;;
64959;SDS011;51487;52.266;10.542;2023-04-08T09:58:38;27.50;;;15.00;;
64959;SDS011;51487;52.266;10.542;2023-04-08T10:01:11;22.13;;;13.57;;
64959;SDS011;51487;52.266;10.542;2023-04-08T10:03:39;24.15;;;14.07;;
64959;SDS011;51487;52.266;10.542;2023-04-08T10:06:08;20.77;;;12.68;;
64959;SDS011;51487;52.266;10.542;2023-04-08T10:08:35;25.75;;;15.23;;
64959;SDS011;51487;52.266;10.542;2023-04-08T10:11:01;32.92;;;19.13;;
64959;SDS011;51487;52.266;10.542;2023-04-08T10:13:27;31.42;;;18.95;;
64959;SDS011;51487;52.266;10.542;2023-04-08T10:18:43;20.85;;;13.52;;
64959;SDS011;51487;52.266;10.542;2023-04-08T10:21:42;23.10;;;13.25;;
64959;SDS011;51487;52.266;10.542;2023-04-08T10:24:10;22.88;;;13.48;;
64959;SDS011;51487;52.266;10.542;2023-04-08T10:26:42;22.00;;;13.98;;
64959;SDS011;51487;52.266;10.542;2023-04-08T10:31:43;26.88;;;14.45;;
64959;SDS011;51487;52.266;10.542;2023-04-08T10:34:20;27.17;;;17.00;;
64959;SDS011;51487;52.266;10.542;2023-04-08T10:36:48;44.65;;;24.75;;
64959;SDS011;51487;52.266;10.542;2023-04-08T10:39:14;44.95;;;27.05;;
64959;SDS011;51487;52.266;10.542;2023-04-08T10:41:41;45.72;;;26.73;;
64959;SDS011;51487;52.266;10.542;2023-04-08T10:44:19;44.22;;;27.48;;
64959;SDS011;51487;52.266;10.542;2023-04-08T10:46:47;44.70;;;27.02;;
64959;SDS011;51487;52.266;10.542;2023-04-08T10:49:14;41.92;;;24.95;;
64959;SDS011;51487;52.266;10.542;2023-04-08T10:51:40;35.35;;;22.02;;
64959;SDS011;51487;52.266;10.542;2023-04-08T10:54:08;35.95;;;21.95;;
64959;SDS011;51487;52.266;10.542;2023-04-08T10:56:50;33.85;;;22.15;;
64959;SDS011;51487;52.266;10.542;2023-04-08T10:59:27;33.28;;;20.67;;
64959;SDS011;51487;52.266;10.542;2023-04-08T11:01:53;29.30;;;18.45;;
64959;SDS011;51487;52.266;10.542;2023-04-08T11:04:19;30.25;;;17.95;;
64959;SDS011;51487;52.266;10.542;2023-04-08T11:06:47;24.90;;;15.77;;
64959;SDS011;51487;52.266;10.542;2023-04-08T11:09:13;26.10;;;16.35;;
64959;SDS011;51487;52.266;10.542;2023-04-08T11:11:43;24.70;;;16.10;;
64959;SDS011;51487;52.266;10.542;2023-04-08T11:14:09;18.35;;;11.65;;
64959;SDS011;51487;52.266;10.542;2023-04-08T11:16:36;24.10;;;11.63;;
64959;SDS011;51487;52.266;10.542;2023-04-08T11:19:02;19.45;;;11.27;;
64959;SDS011;51487;52.266;10.542;2023-04-08T11:21:34;18.80;;;10.52;;
64959;SDS011;51487;52.266;10.542;2023-04-08T11:24:00;15.93;;;10.15;;
64959;SDS011;51487;52.266;10.542;2023-04-08T11:26:30;14.45;;;10.30;;
64959;SDS011;51487;52.266;10.542;2023-04-08T11:28:55;17.10;;;11.82;;
64959;SDS011;51487;52.266;10.542;2023-04-08T11:31:22;21.75;;;13.52;;
64959;SDS011;51487;52.266;10.542;2023-04-08T11:33:48;21.58;;;13.30;;
64959;SDS011;51487;52.266;10.542;2023-04-08T11:36:16;19.98;;;12.95;;
64959;SDS011;51487;52.266;10.542;2023-04-08T11:38:42;20.48;;;12.43;;
64959;SDS011;51487;52.266;10.542;2023-04-08T11:41:08;19.33;;;12.45;;
64959;SDS011;51487;52.266;10.542;2023-04-08T11:43:35;19.83;;;12.63;;
64959;SDS011;51487;52.266;10.542;2023-04-08T11:46:18;23.95;;;13.65;;
64959;SDS011;51487;52.266;10.542;2023-04-08T11:48:57;19.25;;;13.18;;
64959;SDS011;51487;52.266;10.542;2023-04-08T11:51:24;23.20;;;14.32;;
64959;SDS011;51487;52.266;10.542;2023-04-08T11:53:50;24.88;;;14.82;;
64959;SDS011;51487;52.266;10.542;2023-04-08T11:56:19;22.90;;;15.10;;
64959;SDS011;51487;52.266;10.542;2023-04-08T11:58:47;21.67;;;14.10;;
64959;SDS011;51487;52.266;10.542;2023-04-08T12:01:13;22.58;;;14.55;;
64959;SDS011;51487;52.266;10.542;2023-04-08T12:03:38;23.98;;;14.48;;
64959;SDS011;51487;52.266;10.542;2023-04-08T12:06:17;25.08;;;15.43;;
64959;SDS011;51487;52.266;10.542;2023-04-08T12:08:42;21.73;;;14.77;;
64959;SDS011;51487;52.266;10.542;2023-04-08T12:11:08;22.70;;;14.00;;
64959;SDS011;51487;52.266;10.542;2023-04-08T12:13:34;22.08;;;13.98;;
64959;SDS011;51487;52.266;10.542;2023-04-08T12:15:59;20.48;;;13.77;;
64959;SDS011;51487;52.266;10.542;2023-04-08T12:18:24;19.45;;;11.57;;
64959;SDS011;51487;52.266;10.542;2023-04-08T12:20:50;19.38;;;12.13;;
64959;SDS011;51487;52.266;10.542;2023-04-08T12:23:15;17.08;;;11.20;;
64959;SDS011;51487;52.266;10.542;2023-04-08T12:25:41;18.88;;;10.98;;
64959;SDS011;51487;52.266;10.542;2023-04-08T12:28:07;15.85;;;10.40;;
64959;SDS011;51487;52.266;10.542;2023-04-08T12:30:33;16.13;;;10.23;;
64959;SDS011;51487;52.266;10.542;2023-04-08T12:32:59;16.75;;;11.13;;
64959;SDS011;51487;52.266;10.542;2023-04-08T12:35:24;20.52;;;12.68;;
64959;SDS011;51487;52.266;10.542;2023-04-08T12:37:49;19.67;;;12.25;;
64959;SDS011;51487;52.266;10.542;2023-04-08T12:40:15;20.80;;;12.98;;
64959;SDS011;51487;52.266;10.542;2023-04-08T12:42:43;19.92;;;12.27;;
64959;SDS011;51487;52.266;10.542;2023-04-08T12:45:08;19.45;;;12.38;;
64959;SDS011;51487;52.266;10.542;2023-04-08T12:47:34;21.15;;;14.25;;
64959;SDS011;51487;52.266;10.542;2023-04-08T12:49:59;20.90;;;12.65;;
64959;SDS011;51487;52.266;10.542;2023-04-08T12:52:24;19.95;;;12.30;;
64959;SDS011;51487;52.266;10.542;2023-04-08T12:54:50;18.85;;;13.05;;
64959;SDS011;51487;52.266;10.542;2023-04-08T12:57:15;25.25;;;13.35;;
64959;SDS011;51487;52.266;10.542;2023-04-08T12:59:41;20.80;;;12.70;;
64959;SDS011;51487;52.266;10.542;2023-04-08T13:02:06;20.58;;;12.52;;
64959;SDS011;51487;52.266;10.542;2023-04-08T13:04:32;20.10;;;13.70;;
64959;SDS011;51487;52.266;10.542;2023-04-08T13:06:57;24.15;;;14.02;;
64959;SDS011;51487;52.266;10.542;2023-04-08T13:09:23;21.08;;;13.00;;
64959;SDS011;51487;52.266;10.542;2023-04-08T13:11:49;23.80;;;14.07;;
64959;SDS011;51487;52.266;10.542;2023-04-08T13:14:14;24.38;;;14.30;;
64959;SDS011;51487;52.266;10.542;2023-04-08T13:16:40;22.23;;;13.80;;
64959;SDS011;51487;52.266;10.542;2023-04-08T13:19:05;20.92;;;14.93;;
64959;SDS011;51487;52.266;10.542;2023-04-08T13:21:31;18.85;;;12.93;;
64959;SDS011;51487;52.266;10.542;2023-04-08T13:23:56;23.65;;;13.82;;
64959;SDS011;51487;52.266;10.542;2023-04-08T13:26:21;19.60;;;13.38;;
64959;SDS011;51487;52.266;10.542;2023-04-08T13:28:47;19.88;;;13.00;;
64959;SDS011;51487;52.266;10.542;2023-04-08T13:31:13;20.92;;;12.55;;
64959;SDS011;51487;52.266;10.542;2023-04-08T13:33:38;18.73;;;12.23;;
64959;SDS011;51487;52.266;10.542;2023-04-08T13:36:03;19.25;;;12.95;;
64959;SDS011;51487;52.266;10.542;2023-04-08T13:38:29;20.08;;;12.95;;
64959;SDS011;51487;52.266;10.542;2023-04-08T13:40:54;19.67;;;12.82;;
64959;SDS011;51487;52.266;10.542;2023-04-08T13:43:20;20.13;;;13.38;;
64959;SDS011;51487;52.266;10.542;2023-04-08T13:45:46;20.48;;;13.75;;
64959;SDS011;51487;52.266;10.542;2023-04-08T13:48:12;22.92;;;13.40;;
64959;SDS011;51487;52.266;10.542;2023-04-08T13:50:37;21.65;;;13.65;;
64959;SDS011;51487;52.266;10.542;2023-04-08T13:53:04;20.50;;;13.20;;
64959;SDS011;51487;52.266;10.542;2023-04-08T13:55:29;21.80;;;13.88;;
64959;SDS011;51487;52.266;10.542;2023-04-08T13:57:55;19.65;;;13.20;;
64959;SDS011;51487;52.266;10.542;2023-04-08T14:00:20;21.10;;;13.02;;
64959;SDS011;51487;52.266;10.542;2023-04-08T14:02:46;18.83;;;13.27;;
64959;SDS011;51487;52.266;10.542;2023-04-08T14:05:11;21.10;;;13.27;;
64959;SDS011;51487;52.266;10.542;2023-04-08T14:07:37;18.58;;;13.25;;
64959;SDS011;51487;52.266;10.542;2023-04-08T14:10:02;20.38;;;13.35;;
64959;SDS011;51487;52.266;10.542;2023-04-08T14:12:28;20.42;;;13.30;;
64959;SDS011;51487;52.266;10.542;2023-04-08T14:14:53;20.92;;;13.98;;
64959;SDS011;51487;52.266;10.542;2023-04-08T14:17:19;20.83;;;13.48;;
64959;SDS011;51487;52.266;10.542;2023-04-08T14:19:44;21.67;;;13.23;;
64959;SDS011;51487;52.266;10.542;2023-04-08T14:22:09;20.23;;;13.00;;